createdAt,value
2023-02-06T00:00:51.487Z,100.00
2023-02-06T00:03:38.392Z,100.00
2023-02-06T00:06:09.081Z,100.00
2023-02-06T00:08:36.266Z,100.00
2023-02-06T00:11:05.194Z,100.00
2023-02-06T00:13:35.520Z,100.00
2023-02-06T00:16:02.795Z,100.00
2023-02-06T00:18:29.874Z,100.00
2023-02-06T00:20:57.097Z,100.00
2023-02-06T00:23:24.159Z,100.00
2023-02-06T00:25:51.645Z,100.00
2023-02-06T00:28:18.744Z,100.00
2023-02-06T00:30:47.369Z,100.00
2023-02-06T00:33:14.466Z,100.00
2023-02-06T00:35:41.807Z,100.00
2023-02-06T00:38:10.090Z,100.00
2023-02-06T00:40:37.457Z,100.00
2023-02-06T00:43:04.409Z,100.00
2023-02-06T00:45:31.576Z,100.00
2023-02-06T00:47:58.456Z,100.00
2023-02-06T00:50:25.975Z,100.00
2023-02-06T00:52:52.858Z,100.00
2023-02-06T00:55:20.220Z,100.00
2023-02-06T00:57:47.214Z,100.00
2023-02-06T01:00:14.758Z,100.00
2023-02-06T01:02:41.849Z,100.00
2023-02-06T01:05:09.316Z,100.00
2023-02-06T01:07:39.906Z,100.00
2023-02-06T01:10:08.238Z,100.00
2023-02-06T01:12:35.967Z,100.00
2023-02-06T01:15:04.936Z,100.00
2023-02-06T01:17:32.965Z,100.00
2023-02-06T01:20:00.640Z,100.00
2023-02-06T01:22:28.044Z,100.00
2023-02-06T01:24:55.269Z,100.00
2023-02-06T01:27:22.346Z,100.00
2023-02-06T01:29:49.571Z,100.00
2023-02-06T01:32:16.517Z,100.00
2023-02-06T01:34:43.942Z,100.00
2023-02-06T01:37:10.830Z,100.00
2023-02-06T01:39:38.086Z,100.00
2023-02-06T01:42:05.419Z,100.00
2023-02-06T01:44:35.669Z,100.00
2023-02-06T01:47:04.875Z,100.00
2023-02-06T01:49:35.927Z,100.00
2023-02-06T01:52:02.803Z,100.00
2023-02-06T01:54:30.953Z,100.00
2023-02-06T01:57:01.736Z,100.00
2023-02-06T01:59:29.560Z,100.00
2023-02-06T02:01:56.769Z,100.00
2023-02-06T02:04:26.435Z,100.00
2023-02-06T02:07:01.310Z,100.00
2023-02-06T02:09:29.763Z,100.00
2023-02-06T02:11:56.655Z,100.00
2023-02-06T02:14:24.107Z,100.00
2023-02-06T02:17:06.578Z,100.00
2023-02-06T02:19:43.350Z,100.00
2023-02-06T02:22:19.438Z,100.00
2023-02-06T02:25:05.418Z,100.00
2023-02-06T02:27:32.805Z,100.00
2023-02-06T02:30:02.949Z,100.00
2023-02-06T02:32:42.310Z,100.00
2023-02-06T02:35:14.178Z,100.00
2023-02-06T02:37:47.380Z,100.00
2023-02-06T02:40:38.002Z,100.00
2023-02-06T02:43:14.671Z,100.00
2023-02-06T02:45:51.016Z,100.00
2023-02-06T02:48:24.123Z,100.00
2023-02-06T02:50:53.261Z,100.00
2023-02-06T02:53:21.077Z,100.00
2023-02-06T02:55:48.245Z,100.00
2023-02-06T02:58:18.336Z,100.00
2023-02-06T03:00:48.876Z,100.00
2023-02-06T03:03:18.072Z,100.00
2023-02-06T03:05:52.078Z,100.00
2023-02-06T03:08:26.063Z,100.00
2023-02-06T03:11:03.519Z,100.00
2023-02-06T03:13:34.629Z,100.00
2023-02-06T03:16:10.975Z,100.00
2023-02-06T03:18:46.338Z,100.00
2023-02-06T03:21:18.413Z,100.00
2023-02-06T03:23:47.235Z,100.00
2023-02-06T03:26:16.212Z,100.00
2023-02-06T03:28:46.154Z,100.00
2023-02-06T03:31:15.816Z,100.00
2023-02-06T03:33:46.885Z,100.00
2023-02-06T03:36:17.238Z,100.00
2023-02-06T03:38:48.502Z,100.00
2023-02-06T03:41:17.144Z,100.00
2023-02-06T03:43:45.975Z,100.00
2023-02-06T03:46:15.086Z,100.00
2023-02-06T03:48:47.441Z,100.00
2023-02-06T03:51:17.977Z,100.00
2023-02-06T03:53:49.940Z,100.00
2023-02-06T03:56:22.230Z,100.00
2023-02-06T03:58:49.140Z,100.00
2023-02-06T04:01:16.785Z,100.00
2023-02-06T04:03:43.758Z,100.00
2023-02-06T04:06:11.020Z,100.00
2023-02-06T04:08:38.002Z,100.00
2023-02-06T04:11:05.156Z,100.00
2023-02-06T04:13:32.019Z,100.00
2023-02-06T04:15:59.336Z,100.00
2023-02-06T04:18:26.295Z,100.00
2023-02-06T04:20:53.678Z,100.00
2023-02-06T04:23:20.634Z,100.00
2023-02-06T04:25:48.279Z,100.00
2023-02-06T04:28:15.214Z,100.00
2023-02-06T04:30:42.554Z,100.00
2023-02-06T04:33:09.551Z,100.00
2023-02-06T04:35:37.347Z,100.00
2023-02-06T04:38:04.557Z,100.00
2023-02-06T04:40:32.069Z,100.00
2023-02-06T04:42:59.073Z,100.00
2023-02-06T04:45:26.426Z,100.00
2023-02-06T04:47:53.899Z,100.00
2023-02-06T04:50:21.172Z,100.00
2023-02-06T04:52:48.250Z,100.00
2023-02-06T04:55:15.578Z,100.00
2023-02-06T04:57:42.469Z,100.00
2023-02-06T05:00:10.430Z,100.00
2023-02-06T05:02:39.976Z,100.00
2023-02-06T05:05:08.321Z,100.00
2023-02-06T05:07:36.199Z,100.00
2023-02-06T05:10:03.957Z,100.00
2023-02-06T05:12:30.886Z,100.00
2023-02-06T05:14:58.074Z,100.00
2023-02-06T05:17:24.895Z,100.00
2023-02-06T05:19:52.402Z,100.00
2023-02-06T05:22:19.291Z,100.00
2023-02-06T05:24:49.313Z,100.00
2023-02-06T05:27:16.190Z,100.00
2023-02-06T05:29:43.322Z,100.00
2023-02-06T05:32:10.273Z,100.00
2023-02-06T05:34:37.468Z,100.00
2023-02-06T05:37:07.185Z,100.00
2023-02-06T05:39:34.438Z,100.00
2023-02-06T05:42:03.694Z,100.00
2023-02-06T05:44:30.902Z,100.00
2023-02-06T05:46:57.914Z,100.00
2023-02-06T05:49:25.109Z,100.00
2023-02-06T05:51:52.052Z,100.00
2023-02-06T05:54:19.281Z,100.00
2023-02-06T05:56:46.167Z,100.00
2023-02-06T05:59:13.336Z,100.00
2023-02-06T06:01:40.286Z,100.00
2023-02-06T06:04:07.763Z,100.00
2023-02-06T06:06:34.701Z,100.00
2023-02-06T06:09:01.962Z,100.00
2023-02-06T06:11:33.516Z,100.00
2023-02-06T06:14:00.842Z,100.00
2023-02-06T06:16:27.785Z,100.00
2023-02-06T06:18:55.972Z,100.00
2023-02-06T06:21:25.782Z,100.00
2023-02-06T06:23:53.041Z,100.00
2023-02-06T06:26:20.049Z,100.00
2023-02-06T06:28:47.317Z,100.00
2023-02-06T06:31:15.171Z,100.00
2023-02-06T06:33:42.516Z,100.00
2023-02-06T06:36:10.076Z,100.00
2023-02-06T06:38:37.952Z,100.00
2023-02-06T06:41:05.280Z,100.00
2023-02-06T06:43:33.090Z,100.00
2023-02-06T06:46:02.761Z,100.00
2023-02-06T06:48:30.222Z,100.00
2023-02-06T06:50:57.312Z,100.00
2023-02-06T06:53:24.581Z,100.00
2023-02-06T06:55:51.510Z,100.00
2023-02-06T06:58:18.989Z,100.00
2023-02-06T07:00:48.397Z,100.00
2023-02-06T07:03:15.695Z,100.00
2023-02-06T07:05:44.967Z,100.00
2023-02-06T07:08:12.239Z,100.00
2023-02-06T07:10:39.067Z,100.00
2023-02-06T07:13:06.628Z,100.00
2023-02-06T07:15:33.891Z,100.00
2023-02-06T07:18:01.152Z,100.00
2023-02-06T07:20:28.182Z,100.00
2023-02-06T07:22:55.361Z,100.00
2023-02-06T07:25:22.501Z,100.00
2023-02-06T07:27:50.098Z,100.00
2023-02-06T07:30:17.099Z,100.00
2023-02-06T07:32:44.468Z,100.00
2023-02-06T07:35:11.342Z,100.00
2023-02-06T07:37:38.458Z,100.00
2023-02-06T07:40:05.716Z,100.00
2023-02-06T07:42:33.851Z,100.00
2023-02-06T07:45:09.370Z,100.00
2023-02-06T07:47:36.632Z,100.00
2023-02-06T07:50:04.507Z,100.00
2023-02-06T07:52:31.733Z,100.00
2023-02-06T07:54:58.613Z,100.00
2023-02-06T07:57:28.848Z,100.00
2023-02-06T07:59:55.793Z,100.00
2023-02-06T08:02:23.052Z,100.00
2023-02-06T08:04:50.019Z,100.00
2023-02-06T08:07:19.275Z,100.00
2023-02-06T08:09:46.777Z,100.00
2023-02-06T08:12:14.204Z,100.00
2023-02-06T08:14:41.359Z,100.00
2023-02-06T08:17:08.825Z,100.00
2023-02-06T08:19:35.717Z,100.00
2023-02-06T08:22:02.927Z,100.00
2023-02-06T08:24:30.041Z,100.00
2023-02-06T08:26:57.262Z,100.00
2023-02-06T08:29:24.691Z,100.00
2023-02-06T08:31:52.036Z,100.00
2023-02-06T08:34:21.262Z,100.00
2023-02-06T08:36:48.551Z,100.00
2023-02-06T08:39:15.852Z,100.00
2023-02-06T08:41:45.729Z,100.00
2023-02-06T08:44:14.599Z,100.00
2023-02-06T08:46:42.818Z,100.00
2023-02-06T08:49:14.635Z,100.00
2023-02-06T08:51:41.909Z,100.00
2023-02-06T08:54:11.311Z,100.00
2023-02-06T08:56:39.072Z,100.00
2023-02-06T08:59:06.679Z,100.00
2023-02-06T09:01:35.184Z,100.00
2023-02-06T09:04:06.984Z,100.00
2023-02-06T09:06:35.172Z,100.00
2023-02-06T09:09:02.634Z,100.00
2023-02-06T09:11:30.091Z,100.00
2023-02-06T09:13:57.860Z,100.00
2023-02-06T09:16:28.699Z,100.00
2023-02-06T09:18:56.115Z,100.00
2023-02-06T09:21:24.544Z,100.00
2023-02-06T09:23:53.234Z,100.00
2023-02-06T09:26:21.664Z,99.38
2023-02-06T09:28:51.570Z,97.44
2023-02-06T09:31:21.391Z,96.46
2023-02-06T09:33:48.460Z,95.24
2023-02-06T09:36:16.904Z,92.97
2023-02-06T09:38:45.177Z,91.47
2023-02-06T09:41:24.614Z,92.53
2023-02-06T09:43:53.012Z,88.90
2023-02-06T09:46:23.531Z,85.67
2023-02-06T09:48:51.090Z,80.68
2023-02-06T09:51:28.923Z,80.51
2023-02-06T09:54:05.965Z,79.70
2023-02-06T09:56:36.196Z,78.17
2023-02-06T09:59:08.778Z,78.57
2023-02-06T10:01:49.086Z,77.28
2023-02-06T10:04:19.837Z,74.95
2023-02-06T10:06:54.191Z,73.39
2023-02-06T10:09:25.744Z,72.28
2023-02-06T10:11:57.849Z,72.11
2023-02-06T10:14:28.981Z,71.46
2023-02-06T10:17:01.028Z,70.12
2023-02-06T10:19:48.256Z,72.21
2023-02-06T10:22:34.367Z,71.24
2023-02-06T10:25:13.937Z,70.47
2023-02-06T10:27:42.993Z,72.30
2023-02-06T10:30:17.465Z,70.01
2023-02-06T10:32:59.411Z,70.95
2023-02-06T10:35:43.172Z,70.79
2023-02-06T10:38:40.036Z,72.64
2023-02-06T10:41:19.131Z,72.18
2023-02-06T10:44:04.803Z,73.56
2023-02-06T10:46:37.724Z,73.26
2023-02-06T10:49:08.312Z,71.91
2023-02-06T10:51:36.617Z,70.42
2023-02-06T10:54:11.815Z,70.05
2023-02-06T10:56:44.530Z,68.76
2023-02-06T10:59:14.719Z,67.32
2023-02-06T11:01:43.346Z,66.47
2023-02-06T11:04:15.947Z,67.46
2023-02-06T11:06:47.338Z,68.34
2023-02-06T11:09:14.784Z,68.36
2023-02-06T11:11:46.723Z,69.50
2023-02-06T11:14:22.400Z,70.02
2023-02-06T11:16:50.309Z,72.00
2023-02-06T11:19:22.798Z,70.90
2023-02-06T11:22:04.974Z,70.40
2023-02-06T11:24:32.220Z,70.71
2023-02-06T11:27:00.714Z,69.70
2023-02-06T11:29:27.906Z,68.62
2023-02-06T11:32:02.596Z,68.10
2023-02-06T11:34:34.891Z,68.65
2023-02-06T11:37:07.061Z,67.97
2023-02-06T11:39:34.256Z,67.04
2023-02-06T11:42:04.214Z,66.79
2023-02-06T11:44:41.096Z,65.81
2023-02-06T11:47:20.332Z,64.91
2023-02-06T11:49:47.721Z,65.90
2023-02-06T11:52:31.308Z,65.96
2023-02-06T11:55:02.351Z,66.78
2023-02-06T11:57:31.257Z,66.95
2023-02-06T12:00:00.614Z,66.68
2023-02-06T12:02:32.299Z,68.21
2023-02-06T12:05:13.592Z,67.50
2023-02-06T12:07:46.285Z,68.14
2023-02-06T12:10:15.400Z,69.75
2023-02-06T12:12:45.839Z,71.20
2023-02-06T12:15:39.877Z,71.46
2023-02-06T12:18:20.989Z,71.64
2023-02-06T12:20:56.184Z,72.24
2023-02-06T12:23:29.214Z,73.04
2023-02-06T12:25:59.749Z,72.49
2023-02-06T12:28:27.007Z,72.58
2023-02-06T12:30:57.017Z,72.48
2023-02-06T12:33:33.565Z,73.49
2023-02-06T12:36:16.898Z,72.68
2023-02-06T12:38:49.760Z,72.91
2023-02-06T12:41:25.854Z,72.44
2023-02-06T12:43:59.841Z,73.27
2023-02-06T12:46:29.773Z,73.13
2023-02-06T12:49:05.543Z,72.57
2023-02-06T12:51:36.927Z,72.56
2023-02-06T12:54:06.881Z,72.52
2023-02-06T12:56:40.898Z,71.18
2023-02-06T12:59:26.998Z,71.44
2023-02-06T13:02:24.496Z,71.28
2023-02-06T13:04:52.154Z,72.16
2023-02-06T13:07:21.967Z,70.63
2023-02-06T13:09:53.638Z,71.94
2023-02-06T13:12:22.722Z,71.81
2023-02-06T13:14:51.913Z,73.18
2023-02-06T13:17:36.651Z,72.22
2023-02-06T13:20:14.022Z,69.66
2023-02-06T13:22:46.840Z,68.36
2023-02-06T13:25:27.851Z,69.29
2023-02-06T13:27:55.741Z,69.48
2023-02-06T13:30:29.103Z,68.46
2023-02-06T13:33:16.843Z,68.27
2023-02-06T13:35:59.591Z,69.48
2023-02-06T13:38:28.688Z,69.25
2023-02-06T13:41:14.462Z,69.45
2023-02-06T13:43:44.525Z,69.05
2023-02-06T13:46:14.603Z,68.74
2023-02-06T13:48:51.401Z,68.63
2023-02-06T13:51:18.542Z,69.05
2023-02-06T13:54:05.470Z,69.64
2023-02-06T13:56:54.411Z,70.03
2023-02-06T13:59:24.696Z,70.29
2023-02-06T14:01:52.821Z,70.29
2023-02-06T14:04:28.569Z,71.85
2023-02-06T14:07:10.252Z,71.23
2023-02-06T14:10:14.878Z,71.85
2023-02-06T14:12:54.260Z,72.97
2023-02-06T14:15:33.332Z,73.84
2023-02-06T14:18:19.326Z,73.73
2023-02-06T14:21:07.676Z,73.21
2023-02-06T14:23:41.973Z,73.39
2023-02-06T14:26:11.269Z,74.54
2023-02-06T14:28:38.590Z,73.85
2023-02-06T14:31:11.628Z,74.40
2023-02-06T14:33:44.993Z,75.12
2023-02-06T14:36:11.862Z,76.02
2023-02-06T14:38:57.858Z,75.23
2023-02-06T14:41:27.859Z,75.42
2023-02-06T14:43:55.290Z,76.08
2023-02-06T14:46:22.634Z,77.41
2023-02-06T14:48:52.222Z,78.11
2023-02-06T14:51:25.199Z,78.97
2023-02-06T14:54:03.038Z,78.99
2023-02-06T14:56:39.391Z,79.70
2023-02-06T14:59:12.570Z,80.69
2023-02-06T15:01:40.134Z,81.24
2023-02-06T15:04:09.325Z,81.61
2023-02-06T15:06:39.556Z,82.18
2023-02-06T15:09:07.113Z,83.34
2023-02-06T15:11:34.689Z,84.18
2023-02-06T15:14:06.141Z,83.90
2023-02-06T15:16:45.775Z,84.55
2023-02-06T15:19:17.263Z,84.41
2023-02-06T15:21:44.345Z,84.31
2023-02-06T15:24:30.724Z,86.06
2023-02-06T15:27:06.726Z,85.04
2023-02-06T15:29:34.011Z,83.79
2023-02-06T15:32:17.008Z,83.76
2023-02-06T15:34:46.035Z,82.10
2023-02-06T15:37:20.123Z,82.56
2023-02-06T15:39:47.945Z,83.25
2023-02-06T15:42:15.168Z,83.64
2023-02-06T15:44:42.861Z,85.17
2023-02-06T15:47:12.997Z,86.31
2023-02-06T15:49:42.511Z,89.95
2023-02-06T15:52:13.445Z,91.79
2023-02-06T15:54:42.705Z,91.52
2023-02-06T15:57:21.688Z,92.14
2023-02-06T15:59:48.979Z,93.36
2023-02-06T16:02:20.806Z,93.36
2023-02-06T16:04:51.069Z,93.45
2023-02-06T16:07:18.318Z,92.88
2023-02-06T16:10:04.028Z,93.77
2023-02-06T16:12:49.311Z,93.92
2023-02-06T16:15:26.019Z,92.90
2023-02-06T16:17:53.560Z,94.69
2023-02-06T16:20:39.870Z,96.25
2023-02-06T16:23:24.381Z,96.72
2023-02-06T16:26:03.902Z,97.69
2023-02-06T16:28:39.440Z,100.00
2023-02-06T16:31:06.878Z,100.00
2023-02-06T16:33:44.415Z,100.00
2023-02-06T16:36:16.269Z,100.00
2023-02-06T16:38:48.369Z,100.00
2023-02-06T16:41:27.782Z,100.00
2023-02-06T16:43:55.228Z,100.00
2023-02-06T16:46:22.544Z,100.00
2023-02-06T16:48:50.199Z,100.00
2023-02-06T16:51:19.591Z,100.00
2023-02-06T16:53:48.293Z,100.00
2023-02-06T16:56:16.343Z,100.00
2023-02-06T16:58:45.608Z,100.00
2023-02-06T17:01:19.877Z,100.00
2023-02-06T17:03:47.364Z,100.00
2023-02-06T17:06:18.153Z,100.00
2023-02-06T17:08:45.510Z,100.00
2023-02-06T17:11:15.429Z,100.00
2023-02-06T17:13:42.533Z,100.00
2023-02-06T17:16:15.794Z,100.00
2023-02-06T17:18:42.955Z,100.00
2023-02-06T17:21:13.104Z,100.00
2023-02-06T17:23:41.015Z,100.00
2023-02-06T17:26:12.716Z,100.00
2023-02-06T17:28:40.201Z,100.00
2023-02-06T17:31:07.946Z,100.00
2023-02-06T17:33:35.801Z,100.00
2023-02-06T17:36:03.709Z,100.00
2023-02-06T17:38:30.839Z,100.00
2023-02-06T17:40:58.764Z,100.00
2023-02-06T17:43:26.380Z,100.00
2023-02-06T17:45:57.191Z,100.00
2023-02-06T17:48:24.509Z,100.00
2023-02-06T17:50:51.824Z,100.00
2023-02-06T17:53:19.209Z,100.00
2023-02-06T17:55:47.742Z,100.00
2023-02-06T17:58:14.971Z,100.00
2023-02-06T18:00:43.155Z,100.00
2023-02-06T18:03:17.145Z,100.00
2023-02-06T18:05:47.285Z,100.00
2023-02-06T18:08:16.569Z,100.00
2023-02-06T18:10:45.073Z,100.00
2023-02-06T18:13:13.135Z,100.00
2023-02-06T18:15:40.744Z,100.00
2023-02-06T18:18:08.468Z,100.00
2023-02-06T18:20:38.601Z,100.00
2023-02-06T18:23:06.388Z,100.00
2023-02-06T18:25:34.304Z,100.00
2023-02-06T18:28:01.903Z,100.00
2023-02-06T18:30:29.636Z,100.00
2023-02-06T18:32:57.130Z,100.00
2023-02-06T18:35:24.986Z,100.00
2023-02-06T18:37:53.045Z,100.00
2023-02-06T18:40:21.161Z,100.00
2023-02-06T18:42:52.028Z,100.00
2023-02-06T18:45:24.362Z,100.00
2023-02-06T18:47:52.577Z,100.00
2023-02-06T18:50:22.018Z,100.00
2023-02-06T18:52:53.097Z,100.00
2023-02-06T18:55:20.875Z,100.00
2023-02-06T18:57:50.877Z,100.00
2023-02-06T19:00:20.302Z,100.00
2023-02-06T19:02:48.705Z,100.00
2023-02-06T19:05:18.381Z,100.00
2023-02-06T19:07:51.380Z,100.00
2023-02-06T19:10:20.476Z,100.00
2023-02-06T19:12:48.635Z,100.00
2023-02-06T19:15:17.116Z,100.00
2023-02-06T19:17:47.522Z,100.00
2023-02-06T19:20:15.572Z,100.00
2023-02-06T19:22:43.763Z,100.00
2023-02-06T19:25:14.620Z,100.00
2023-02-06T19:27:42.488Z,100.00
2023-02-06T19:30:11.070Z,100.00
2023-02-06T19:32:38.730Z,100.00
2023-02-06T19:35:07.113Z,100.00
2023-02-06T19:37:34.814Z,100.00
2023-02-06T19:40:03.030Z,100.00
2023-02-06T19:42:32.842Z,100.00
2023-02-06T19:45:01.017Z,100.00
2023-02-06T19:47:28.916Z,100.00
2023-02-06T19:50:00.308Z,100.00
2023-02-06T19:52:28.694Z,100.00
2023-02-06T19:55:00.401Z,100.00
2023-02-06T19:57:29.269Z,100.00
2023-02-06T19:59:58.503Z,100.00
2023-02-06T20:02:25.860Z,100.00
2023-02-06T20:04:53.621Z,100.00
2023-02-06T20:07:21.265Z,100.00
2023-02-06T20:09:53.819Z,100.00
2023-02-06T20:12:22.043Z,100.00
2023-02-06T20:14:50.142Z,100.00
2023-02-06T20:17:19.345Z,100.00
2023-02-06T20:19:47.406Z,100.00
2023-02-06T20:22:15.385Z,100.00
2023-02-06T20:24:44.355Z,100.00
2023-02-06T20:27:16.320Z,100.00
2023-02-06T20:29:46.878Z,100.00
2023-02-06T20:32:18.995Z,100.00
2023-02-06T20:34:47.801Z,100.00
2023-02-06T20:37:18.336Z,100.00
2023-02-06T20:39:46.556Z,100.00
2023-02-06T20:42:14.137Z,100.00
2023-02-06T20:44:42.091Z,100.00
2023-02-06T20:47:14.576Z,100.00
2023-02-06T20:49:45.038Z,100.00
2023-02-06T20:52:13.425Z,100.00
2023-02-06T20:54:41.341Z,100.00
2023-02-06T20:57:09.188Z,100.00
2023-02-06T20:59:36.896Z,100.00
2023-02-06T21:02:04.816Z,100.00
2023-02-06T21:04:33.920Z,100.00
2023-02-06T21:07:01.481Z,100.00
2023-02-06T21:09:29.217Z,100.00
2023-02-06T21:11:56.978Z,100.00
2023-02-06T21:14:25.428Z,100.00
2023-02-06T21:16:52.952Z,100.00
2023-02-06T21:19:20.790Z,100.00
2023-02-06T21:21:48.591Z,100.00
2023-02-06T21:24:16.448Z,100.00
2023-02-06T21:26:43.767Z,100.00
2023-02-06T21:29:12.395Z,100.00
2023-02-06T21:31:39.543Z,100.00
2023-02-06T21:34:09.226Z,100.00
2023-02-06T21:36:37.884Z,100.00
2023-02-06T21:39:05.520Z,100.00
2023-02-06T21:41:32.789Z,100.00
2023-02-06T21:44:00.084Z,100.00
2023-02-06T21:46:29.162Z,100.00
2023-02-06T21:48:56.713Z,100.00
2023-02-06T21:51:23.963Z,100.00
2023-02-06T21:53:51.279Z,100.00
2023-02-06T21:56:22.180Z,100.00
2023-02-06T21:58:52.310Z,100.00
2023-02-06T22:01:20.761Z,100.00
2023-02-06T22:03:48.042Z,100.00
2023-02-06T22:06:15.385Z,100.00
2023-02-06T22:08:48.052Z,100.00
2023-02-06T22:11:16.278Z,100.00
2023-02-06T22:13:43.997Z,100.00
2023-02-06T22:16:11.820Z,100.00
2023-02-06T22:18:41.938Z,100.00
2023-02-06T22:21:10.645Z,100.00
2023-02-06T22:23:38.039Z,100.00
2023-02-06T22:26:08.217Z,100.00
2023-02-06T22:28:35.581Z,100.00
2023-02-06T22:31:10.396Z,100.00
2023-02-06T22:33:37.989Z,100.00
2023-02-06T22:36:09.338Z,100.00
2023-02-06T22:38:37.224Z,100.00
2023-02-06T22:41:08.792Z,100.00
2023-02-06T22:43:37.028Z,100.00
2023-02-06T22:46:04.400Z,100.00
2023-02-06T22:48:31.603Z,100.00
2023-02-06T22:51:11.255Z,100.00
2023-02-06T22:53:38.893Z,100.00
2023-02-06T22:56:26.005Z,100.00
2023-02-06T22:58:58.214Z,100.00
2023-02-06T23:01:26.023Z,100.00
2023-02-06T23:03:53.995Z,100.00
2023-02-06T23:06:21.414Z,100.00
2023-02-06T23:08:48.779Z,100.00
2023-02-06T23:11:16.050Z,100.00
2023-02-06T23:13:43.359Z,100.00
2023-02-06T23:16:10.609Z,100.00
2023-02-06T23:18:37.959Z,100.00
2023-02-06T23:21:06.611Z,100.00
2023-02-06T23:23:34.153Z,100.00
2023-02-06T23:26:03.944Z,100.00
2023-02-06T23:28:31.107Z,100.00
2023-02-06T23:30:58.157Z,100.00
2023-02-06T23:33:25.490Z,100.00
2023-02-06T23:35:52.435Z,100.00
2023-02-06T23:38:19.678Z,100.00
2023-02-06T23:40:47.650Z,100.00
2023-02-06T23:43:14.914Z,100.00
2023-02-06T23:45:41.924Z,100.00
2023-02-06T23:48:09.210Z,100.00
2023-02-06T23:50:36.102Z,100.00
2023-02-06T23:53:03.458Z,100.00
2023-02-06T23:55:30.727Z,100.00
2023-02-06T23:57:58.132Z,100.00
